Time;durP1;ratioP1;P1;durP2;ratioP2;P2;SDS_P1;SDS_P2;PMS_P1;PMS_P2;Temp;Humidity;BMP_temperature;BMP_pressure;BME280_temperature;BME280_humidity;BME280_pressure;Samples;Min_cycle;Max_cycle;Signal;HPM_P1;HPM_P2
2022/11/26 00:01:15;;;;;;;;;;;;;;;7.06;100.00;100690.56;6278134;22;20387;-93
2022/11/26 00:03:43;;;;;;;;;;;;;;;7.27;100.00;100694.69;6277697;22;19915;-88
2022/11/26 00:09:36;;;;;;;;;;;;;;;7.59;100.00;100700.34;6246403;22;19919;-87
2022/11/26 00:12:24;;;;;;;;;;;;;;;7.69;100.00;100696.69;6150652;23;19916;-86
2022/11/26 00:15:13;;;;;;;;;;;;;;;7.80;100.00;100697.38;6205759;22;20040;-89
2022/11/26 00:17:42;;;;;;;;;;;;;;;7.92;100.00;100703.31;6276035;22;19911;-88
2022/11/26 00:20:17;;;;;;;;;;;;;;;7.99;100.00;100704.94;6250472;22;19912;-90
2022/11/26 00:22:51;;;;;;;;;;;;;;;8.04;100.00;100708.41;6231929;22;19911;-90
2022/11/26 00:25:36;;;;;;;;;;;;;;;8.14;100.00;100711.75;6151653;23;19921;-88
2022/11/26 00:28:04;;;;;;;;;;;;;;;8.19;100.00;100716.00;6148879;23;19991;-87
2022/11/26 00:30:29;;;;;;;;;;;;;;;8.27;100.00;100712.38;6150872;23;19913;-91
2022/11/26 00:32:57;;;;;;;;;;;;;;;8.30;100.00;100714.97;6174807;23;19913;-87
2022/11/26 00:35:22;;;;;;;;;;;;;;;8.34;100.00;100720.16;6151364;23;20324;-83
2022/11/26 00:37:50;;;;;;;;;;;;;;;8.38;100.00;100718.34;6149747;23;19920;-91
2022/11/26 00:40:25;;;;;;;;;;;;;;;8.42;100.00;100721.78;6175128;23;20248;-87
2022/11/26 00:42:56;;;;;;;;;;;;;;;8.43;100.00;100729.69;6175862;23;20048;-91
2022/11/26 00:45:55;;;;;;;;;;;;;;;;;;;;;
2022/11/26 00:48:20;;;;;;;;;;;;;;;8.50;100.00;100728.69;6146597;23;19992;-88
2022/11/26 00:50:50;;;;;;;;;;;;;;;8.51;100.00;100743.63;6150983;23;19940;-89
2022/11/26 00:53:18;;;;;;;;;;;;;;;8.56;100.00;100742.69;6149648;23;19920;-86
2022/11/26 00:58:58;;;;;;;;;;;;;;;8.59;100.00;100753.19;6144578;23;19912;-89
2022/11/26 01:01:49;;;;;;;;;;;;;;;8.62;100.00;100758.41;6152438;23;19989;-95
2022/11/26 01:04:15;;;;;;;;;;;;;;;8.65;100.00;100758.38;6174789;23;19923;-88
2022/11/26 01:09:18;;;;;;;;;;;;;;;8.68;100.00;100766.19;6334447;22;19922;-88
2022/11/26 01:11:47;;;;;;;;;;;;;;;8.70;100.00;100767.91;6365078;22;19997;-91
2022/11/26 01:14:19;;;;;;;;;;;;;;;8.70;100.00;100767.06;6362721;22;20246;-86
2022/11/26 01:16:52;;;;;;;;;;;;;;;8.72;100.00;100768.75;6338910;22;19989;-88
2022/11/26 01:22:32;;;;;;;;;;;;;;;8.77;100.00;100776.59;6316007;22;19934;-88
2022/11/26 01:24:59;;;;;;;;;;;;;;;8.79;100.00;100787.13;6313004;22;19910;-88
2022/11/26 01:27:25;;;;;;;;;;;;;;;8.78;100.00;100788.91;6331395;22;19918;-86
2022/11/26 01:29:50;;;;;;;;;;;;;;;8.81;100.00;100783.56;6339140;22;19958;-88
2022/11/26 01:32:20;;;;;;;;;;;;;;;8.81;100.00;100783.56;6341366;22;20230;-93
2022/11/26 01:35:04;;;;;;;;;;;;;;;8.83;100.00;100787.06;6314937;22;20295;-92
2022/11/26 01:38:18;;;;;;;;;;;;;;;8.84;100.00;100790.56;6312311;22;19906;-94
2022/11/26 01:40:42;;;;;;;;;;;;;;;8.85;100.00;100794.94;6334802;22;19921;-90
2022/11/26 01:43:24;;;;;;;;;;;;;;;8.88;100.00;100793.09;6340309;22;19911;-88
2022/11/26 01:45:52;;;;;;;;;;;;;;;8.87;100.00;100801.97;6339813;22;20321;-86
2022/11/26 01:48:21;;;;;;;;;;;;;;;8.91;100.00;100795.69;6339978;22;19917;-89
2022/11/26 01:50:51;;;;;;;;;;;;;;;8.94;100.00;100791.28;6340236;22;19921;-86
2022/11/26 01:53:42;;;;;;;;;;;;;;;8.95;100.00;100787.69;6310981;22;19911;-90
2022/11/26 01:56:42;;;;;;;;;;;;;;;8.93;100.00;100798.31;6294838;22;20381;-92
2022/11/26 01:59:16;;;;;;;;;;;;;;;8.94;100.00;100791.28;6259723;22;19966;-86
2022/11/26 02:01:41;;;;;;;;;;;;;;;8.94;100.00;100788.63;6340463;22;19941;-87
2022/11/26 02:04:39;;;;;;;;;;;;;;;8.96;100.00;100797.38;6340098;22;19911;-91
2022/11/26 02:07:16;;;;;;;;;;;;;;;8.95;100.00;100807.09;6340344;22;19906;-90
2022/11/26 02:09:42;;;;;;;;;;;;;;;8.97;100.00;100815.00;6312938;22;20270;-89
2022/11/26 02:12:07;;;;;;;;;;;;;;;8.98;100.00;100811.44;6312233;22;19911;-89
2022/11/26 02:14:37;;;;;;;;;;;;;;;8.98;100.00;100817.56;6339883;22;19953;-88
2022/11/26 02:17:18;;;;;;;;;;;;;;;8.99;100.00;100819.34;6339731;22;20402;-88
2022/11/26 02:20:02;;;;;;;;;;;;;;;9.01;100.00;100814.88;6312099;22;20230;-88
2022/11/26 02:22:46;;;;;;;;;;;;;;;9.00;100.00;100815.81;6337721;22;19915;-90
2022/11/26 02:25:42;;;;;;;;;;;;;;;9.01;100.00;100812.22;6340515;22;19926;-89
2022/11/26 02:28:10;;;;;;;;;;;;;;;9.03;100.00;100804.28;6338335;22;20250;-89
2022/11/26 02:30:37;;;;;;;;;;;;;;;9.04;100.00;100803.38;6338090;22;19917;-90
2022/11/26 02:33:19;;;;;;;;;;;;;;;7.96;100.00;100792.09;6312244;22;19964;-89
2022/11/26 02:35:51;;;;;;;;;;;;;;;7.06;100.00;100801.25;6313026;22;19910;-90
2022/11/26 02:38:35;;;;;;;;;;;;;;;;;;;;;
2022/11/26 02:41:02;;;;;;;;;;;;;;;6.52;100.00;100795.72;6339885;22;20296;-89
2022/11/26 02:43:28;;;;;;;;;;;;;;;6.38;100.00;100798.47;6311793;22;19935;-88
2022/11/26 02:45:57;;;;;;;;;;;;;;;6.33;100.00;100800.28;6312581;22;19911;-88
2022/11/26 02:48:26;;;;;;;;;;;;;;;6.22;100.00;100800.38;6339439;22;19910;-85
2022/11/26 02:50:54;;;;;;;;;;;;;;;6.15;100.00;100796.94;6312446;22;19910;-88
2022/11/26 02:53:20;;;;;;;;;;;;;;;6.01;100.00;100798.81;6289609;22;19954;-86
2022/11/26 04:12:30;;;;;;;;;;;;;;;8.63;100.00;100826.19;6276957;22;19930;-88
2022/11/26 04:14:55;;;;;;;;;;;;;;;8.65;100.00;100821.78;6250014;22;19958;-88
2022/11/26 04:17:20;;;;;;;;;;;;;;;8.67;100.00;100826.09;6275110;22;20350;-89
2022/11/26 04:19:46;;;;;;;;;;;;;;;8.70;100.00;100831.34;6275596;22;20307;-90
2022/11/26 04:22:11;;;;;;;;;;;;;;;8.69;100.00;100834.88;6277036;22;19930;-91
2022/11/26 04:24:36;;;;;;;;;;;;;;;8.73;100.00;100838.34;6275168;22;19912;-90
2022/11/26 04:27:01;;;;;;;;;;;;;;;8.77;100.00;100844.44;6276957;22;20322;-90
2022/11/26 04:29:27;;;;;;;;;;;;;;;8.80;100.00;100853.19;6276941;22;19937;-89
2022/11/26 04:31:52;;;;;;;;;;;;;;;8.82;100.00;100854.03;6276615;22;19911;-88
2022/11/26 04:34:17;;;;;;;;;;;;;;;8.84;100.00;100862.81;6276926;22;19911;-88
2022/11/26 04:36:42;;;;;;;;;;;;;;;8.83;100.00;100866.34;6276715;22;19919;-88
2022/11/26 04:39:08;;;;;;;;;;;;;;;8.84;100.00;100867.19;6274999;22;20479;-87
2022/11/26 04:41:33;;;;;;;;;;;;;;;8.87;100.00;100883.91;6275982;22;19918;-89
2022/11/26 04:43:58;;;;;;;;;;;;;;;8.88;100.00;100885.63;6250024;22;19911;-88
2022/11/26 04:46:24;;;;;;;;;;;;;;;8.89;100.00;100891.78;6276547;22;19916;-86
2022/11/26 04:48:49;;;;;;;;;;;;;;;8.90;100.00;100893.50;6276640;22;19965;-90
2022/11/26 04:51:14;;;;;;;;;;;;;;;8.93;100.00;100905.81;6277598;22;19922;-88
2022/11/26 04:53:40;;;;;;;;;;;;;;;8.93;100.00;100903.19;6278541;22;19949;-89
2022/11/26 04:56:05;;;;;;;;;;;;;;;8.93;100.00;100909.31;6275313;22;19947;-87
2022/11/26 04:58:30;;;;;;;;;;;;;;;8.95;100.00;100912.84;6278672;22;19916;-87
2022/11/26 05:00:56;;;;;;;;;;;;;;;8.95;100.00;100918.13;6277639;22;19908;-88
2022/11/26 05:03:21;;;;;;;;;;;;;;;8.96;100.00;100921.63;6251331;22;19915;-88
2022/11/26 05:05:46;;;;;;;;;;;;;;;8.98;100.00;100928.59;6278451;22;20345;-88
2022/11/26 05:08:11;;;;;;;;;;;;;;;9.01;100.00;100932.97;6278288;22;20285;-88
2022/11/26 05:10:37;;;;;;;;;;;;;;;9.01;100.00;100938.28;6284773;22;19925;-88
2022/11/26 05:13:02;;;;;;;;;;;;;;;9.02;100.00;100951.47;6309796;22;20334;-88
2022/11/26 05:15:27;;;;;;;;;;;;;;;9.00;100.00;100947.97;6309273;22;19947;-88
2022/11/26 05:17:52;;;;;;;;;;;;;;;9.01;100.00;100944.41;6309401;22;19911;-87
2022/11/26 05:20:18;;;;;;;;;;;;;;;9.04;100.00;100951.44;6281841;22;19956;-89
2022/11/26 05:22:43;;;;;;;;;;;;;;;9.02;100.00;100946.16;6309195;22;19918;-88
2022/11/26 05:25:09;;;;;;;;;;;;;;;9.05;100.00;100945.25;6280297;22;19917;-88
2022/11/26 05:27:34;;;;;;;;;;;;;;;9.06;100.00;100958.44;6309581;22;19915;-87
2022/11/26 05:30:00;;;;;;;;;;;;;;;9.05;100.00;100954.06;6307578;22;19911;-88
2022/11/26 05:32:25;;;;;;;;;;;;;;;9.08;100.00;100947.84;6308921;22;19942;-87
2022/11/26 08:54:24;;;;;;;;;;;;;;;5.83;100.00;101089.13;6252322;22;20344;-88
2022/11/26 08:57:04;;;;;;;;;;;;;;;5.81;100.00;101086.50;6337706;22;19985;-92
2022/11/26 08:59:30;;;;;;;;;;;;;;;5.75;100.00;101080.41;6338888;22;19945;-89
2022/11/26 09:01:55;;;;;;;;;;;;;;;5.68;100.00;101084.81;6338662;22;20234;-88
2022/11/26 09:04:23;;;;;;;;;;;;;;;5.66;100.00;101086.53;6337097;22;19922;-88
2022/11/26 09:06:48;;;;;;;;;;;;;;;5.61;100.00;101088.31;6339089;22;19911;-88
2022/11/26 09:09:16;;;;;;;;;;;;;;;5.93;100.00;101080.31;6337010;22;19944;-88
2022/11/26 09:11:49;;;;;;;;;;;;;;;6.61;100.00;101079.22;6363651;22;20337;-87
2022/11/26 09:14:24;;;;;;;;;;;;;;;6.98;100.00;101082.44;6339063;22;19914;-86
2022/11/26 09:16:50;;;;;;;;;;;;;;;7.20;100.00;101074.38;6337587;22;19910;-87
2022/11/26 09:19:23;;;;;;;;;;;;;;;7.38;100.00;101079.47;6338722;22;20309;-87
2022/11/26 09:21:51;;;;;;;;;;;;;;;7.52;100.00;101071.44;6338743;22;20311;-88
2022/11/26 09:24:17;;;;;;;;;;;;;;;8.02;100.00;101071.78;6337036;22;20103;-84
2022/11/26 09:27:11;;;;;;;;;;;;;;;7.92;100.00;101081.56;6337032;22;19910;-89
2022/11/26 09:32:50;;;;;;;;;;;;;;;8.00;100.00;101070.94;6332728;22;19917;-89
2022/11/26 09:35:32;;;;;;;;;;;;;;;;;;;;;
2022/11/26 09:37:58;;;;;;;;;;;;;;;8.16;100.00;101083.03;6337922;22;20277;-87
2022/11/26 09:40:49;;;;;;;;;;;;;;;8.25;100.00;101089.09;6340462;22;19953;-89
2022/11/26 09:46:38;;;;;;;;;;;;;;;;;;;;;
2022/11/26 09:49:13;;;;;;;;;;;;;;;8.39;100.00;101087.16;6340073;22;20299;-88
2022/11/26 09:52:06;;;;;;;;;;;;;;;8.45;100.00;101083.59;6338798;22;19916;-88
2022/11/26 09:54:40;;;;;;;;;;;;;;;8.50;100.00;101084.41;6336651;22;19968;-89
2022/11/26 09:57:27;;;;;;;;;;;;;;;8.51;100.00;101087.03;6338664;22;19960;-90
2022/11/26 10:00:22;;;;;;;;;;;;;;;8.55;100.00;101077.28;6365241;22;20238;-90
2022/11/26 10:02:58;;;;;;;;;;;;;;;8.60;100.00;101077.22;6297503;22;20334;-91
2022/11/26 10:14:55;;;;;;;;;;;;;;;8.68;100.00;101057.75;6328641;22;19914;-88
2022/11/26 10:17:58;;;;;;;;;;;;;;;;;;;;;
2022/11/26 10:20:32;;;;;;;;;;;;;;;8.75;100.00;101058.53;6340093;22;19970;-87
2022/11/26 10:23:09;;;;;;;;;;;;;;;8.78;100.00;101053.19;6338212;22;20424;-88
2022/11/26 10:26:07;;;;;;;;;;;;;;;;;;;;;
2022/11/26 10:28:55;;;;;;;;;;;;;;;;;;;;;
2022/11/26 10:31:42;;;;;;;;;;;;;;;8.83;100.00;101043.41;6339547;22;20297;-91
2022/11/26 10:34:24;;;;;;;;;;;;;;;8.85;100.00;101049.53;6323688;22;19918;-89
2022/11/26 10:36:50;;;;;;;;;;;;;;;8.86;100.00;101051.28;6364559;22;19914;-88
2022/11/26 10:39:24;;;;;;;;;;;;;;;8.89;100.00;101050.38;6362670;22;20242;-88
2022/11/26 10:41:52;;;;;;;;;;;;;;;8.89;100.00;101051.25;6339746;22;20283;-88
2022/11/26 10:44:30;;;;;;;;;;;;;;;8.90;100.00;101054.75;6339509;22;20230;-88
2022/11/26 10:47:00;;;;;;;;;;;;;;;8.93;100.00;101067.06;6339867;22;19910;-88
2022/11/26 10:49:27;;;;;;;;;;;;;;;8.93;100.00;101067.94;6340002;22;20373;-88
2022/11/26 10:51:59;;;;;;;;;;;;;;;8.95;100.00;101065.25;6339610;22;19918;-87
2022/11/26 10:54:33;;;;;;;;;;;;;;;8.99;100.00;101059.03;6362533;22;19911;-87
2022/11/26 10:57:17;;;;;;;;;;;;;;;8.98;100.00;101060.78;6338458;22;20343;-87
2022/11/26 10:59:50;;;;;;;;;;;;;;;8.99;100.00;101059.91;6339608;22;20245;-89
2022/11/26 11:02:18;;;;;;;;;;;;;;;9.00;100.00;101058.13;6337792;22;19918;-89
2022/11/26 11:05:03;;;;;;;;;;;;;;;9.01;100.00;101062.53;6339929;22;19911;-88
2022/11/26 11:08:15;;;;;;;;;;;;;;;9.01;100.00;101059.88;6339419;22;20238;-88
2022/11/26 11:11:06;;;;;;;;;;;;;;;9.05;100.00;101058.94;6339590;22;20241;-91
2022/11/26 11:18:59;;;;;;;;;;;;;;;9.09;100.00;101065.91;6303936;22;19919;-87
2022/11/26 11:21:34;;;;;;;;;;;;;;;9.08;100.00;101062.41;6305100;22;20318;-87
2022/11/26 11:24:30;;;;;;;;;;;;;;;8.61;100.00;101076.34;6277723;22;19949;-89
2022/11/26 11:27:20;;;;;;;;;;;;;;;;;;;;;
2022/11/26 11:30:01;;;;;;;;;;;;;;;6.94;100.00;101083.38;6305521;22;19990;-87
2022/11/26 11:33:05;;;;;;;;;;;;;;;6.76;100.00;101083.50;6279134;22;20033;-88
2022/11/26 11:35:30;;;;;;;;;;;;;;;6.53;100.00;101081.88;6296005;22;20322;-88
2022/11/26 11:37:56;;;;;;;;;;;;;;;6.45;100.00;101079.28;6277798;22;19915;-87
2022/11/26 11:40:27;;;;;;;;;;;;;;;6.39;100.00;101084.56;6305273;22;19915;-82
2022/11/26 11:43:26;;;;;;;;;;;;;;;6.68;100.00;101084.41;6305122;22;20350;-88
2022/11/26 11:46:02;;;;;;;;;;;;;;;6.29;100.00;101085.50;6243692;22;20315;-88
2022/11/26 11:51:29;;;;;;;;;;;;;;;;;;;;;
2022/11/26 11:54:09;;;;;;;;;;;;;;;5.98;100.00;101068.09;6337528;22;19982;-87
2022/11/26 11:56:44;;;;;;;;;;;;;;;5.93;100.00;101069.81;6311557;22;19956;-87
2022/11/26 11:59:20;;;;;;;;;;;;;;;5.81;100.00;101067.22;6338876;22;19945;-87
2022/11/26 12:01:54;;;;;;;;;;;;;;;5.79;100.00;101061.97;6338714;22;19911;-87
2022/11/26 12:04:38;;;;;;;;;;;;;;;5.75;100.00;101051.47;6337032;22;19934;-91
2022/11/26 12:07:32;;;;;;;;;;;;;;;;;;;;;
2022/11/26 12:10:14;;;;;;;;;;;;;;;6.08;100.00;101046.97;6337549;22;19982;-87
2022/11/26 12:12:59;;;;;;;;;;;;;;;6.75;100.00;101047.47;6311092;22;19911;-89
2022/11/26 12:15:39;;;;;;;;;;;;;;;7.09;100.00;101061.28;6339245;22;19925;-89
2022/11/26 12:18:16;;;;;;;;;;;;;;;7.30;100.00;101052.31;6337671;22;19981;-88
2022/11/26 12:20:53;;;;;;;;;;;;;;;7.46;100.00;101051.25;6339062;22;19910;-87
2022/11/26 12:23:24;;;;;;;;;;;;;;;7.58;100.00;101054.69;6337266;22;19906;-88
2022/11/26 12:25:54;;;;;;;;;;;;;;;7.70;100.00;101051.03;6337885;22;20329;-87
2022/11/26 12:28:32;;;;;;;;;;;;;;;7.76;100.00;101049.22;6311008;22;19913;-89
2022/11/26 12:31:04;;;;;;;;;;;;;;;7.88;100.00;101042.03;6311430;22;19910;-88
2022/11/26 12:33:55;;;;;;;;;;;;;;;7.94;100.00;101047.25;6337621;22;19910;-89
2022/11/26 12:37:01;;;;;;;;;;;;;;;8.03;100.00;101041.00;6311255;22;19910;-89
2022/11/26 12:39:40;;;;;;;;;;;;;;;8.14;100.00;101039.97;6337083;22;20325;-87
2022/11/26 12:42:08;;;;;;;;;;;;;;;8.22;100.00;101045.16;6338931;22;19914;-88
2022/11/26 12:44:39;;;;;;;;;;;;;;;8.28;100.00;101042.44;6338727;22;19919;-88
2022/11/26 12:47:16;;;;;;;;;;;;;;;8.34;100.00;101036.16;6339127;22;19918;-87
2022/11/26 12:49:50;;;;;;;;;;;;;;;8.41;100.00;101056.34;6338592;22;19915;-90
2022/11/26 12:52:21;;;;;;;;;;;;;;;8.44;100.00;101052.78;6337012;22;19914;-87
2022/11/26 12:57:56;;;;;;;;;;;;;;;8.52;100.00;101045.63;6332829;22;19986;-88
2022/11/26 13:00:25;;;;;;;;;;;;;;;8.55;100.00;101037.66;6363379;22;19914;-88
2022/11/26 13:02:51;;;;;;;;;;;;;;;8.58;100.00;101029.69;6338777;22;19918;-88
2022/11/26 13:05:26;;;;;;;;;;;;;;;;;;;;;
2022/11/26 13:07:55;;;;;;;;;;;;;;;8.65;100.00;101027.84;6337065;22;19993;-87
2022/11/26 13:10:31;;;;;;;;;;;;;;;8.67;100.00;101029.56;6338569;22;19972;-88
2022/11/26 13:13:01;;;;;;;;;;;;;;;8.70;100.00;101024.22;6340075;22;19911;-89
2022/11/26 13:15:34;;;;;;;;;;;;;;;8.71;100.00;101017.16;6339136;22;19914;-87
2022/11/26 13:18:00;;;;;;;;;;;;;;;8.75;100.00;101016.25;6365309;22;19913;-88
2022/11/26 13:21:14;;;;;;;;;;;;;;;;;;;;;
2022/11/26 13:23:57;;;;;;;;;;;;;;;8.80;100.00;101019.66;6243402;23;19982;-87
2022/11/26 13:26:38;;;;;;;;;;;;;;;8.83;100.00;101013.47;6338980;22;19980;-87
2022/11/26 13:29:08;;;;;;;;;;;;;;;8.83;100.00;101018.75;6338775;22;19907;-87
2022/11/26 13:31:33;;;;;;;;;;;;;;;8.84;100.00;101015.19;6338807;22;19993;-87
2022/11/26 13:33:59;;;;;;;;;;;;;;;8.87;100.00;101013.41;6338749;22;19941;-87
2022/11/26 13:36:28;;;;;;;;;;;;;;;8.87;100.00;101008.13;6339003;22;19982;-87
2022/11/26 13:39:13;;;;;;;;;;;;;;;8.90;100.00;101007.19;6363854;22;19942;-87
2022/11/26 13:41:45;;;;;;;;;;;;;;;8.91;100.00;101012.44;6340015;22;19934;-86
2022/11/26 13:44:19;;;;;;;;;;;;;;;8.96;100.00;101008.84;6340217;22;19911;-87
2022/11/26 13:47:03;;;;;;;;;;;;;;;8.95;100.00;101017.69;6340297;22;19910;-89
2022/11/26 13:49:46;;;;;;;;;;;;;;;8.98;100.00;101018.50;6364790;22;19993;-89
2022/11/26 13:52:20;;;;;;;;;;;;;;;8.99;100.00;101016.75;6338631;22;19918;-88
2022/11/26 13:54:57;;;;;;;;;;;;;;;9.01;100.00;101022.88;6338637;22;19917;-86
2022/11/26 13:57:30;;;;;;;;;;;;;;;9.03;100.00;101023.69;6340107;22;20003;-89
2022/11/26 13:59:56;;;;;;;;;;;;;;;9.16;100.00;101012.03;6340115;22;19918;-84
2022/11/26 14:02:35;;;;;;;;;;;;;;;8.50;100.00;101027.19;6339974;22;19914;-90
2022/11/26 14:05:01;;;;;;;;;;;;;;;7.37;100.00;101030.28;6338859;22;19910;-88
2022/11/26 14:07:47;;;;;;;;;;;;;;;7.05;100.00;101026.19;6340140;22;19910;-90
2022/11/26 14:10:37;;;;;;;;;;;;;;;6.67;100.00;101024.72;6337697;22;19960;-87
2022/11/26 14:13:02;;;;;;;;;;;;;;;6.57;100.00;101016.88;6339828;22;20234;-89
2022/11/26 14:15:40;;;;;;;;;;;;;;;6.47;100.00;101021.34;6338164;22;19917;-89
2022/11/26 14:18:08;;;;;;;;;;;;;;;6.32;100.00;101020.56;6339970;22;19911;-88
2022/11/26 14:20:52;;;;;;;;;;;;;;;6.25;100.00;101017.97;6340025;22;19911;-89
2022/11/26 14:23:36;;;;;;;;;;;;;;;6.09;100.00;101014.53;6337726;22;19910;-88
2022/11/26 14:26:05;;;;;;;;;;;;;;;6.05;100.00;101016.31;6364704;22;20323;-87
2022/11/26 14:28:30;;;;;;;;;;;;;;;5.96;100.00;101011.94;6340044;22;19915;-88
2022/11/26 14:31:08;;;;;;;;;;;;;;;5.91;100.00;101013.69;6326765;22;20617;-88
2022/11/26 14:33:43;;;;;;;;;;;;;;;;;;;;;
2022/11/26 14:36:38;;;;;;;;;;;;;;;5.77;100.00;101007.63;6340194;22;19987;-88
2022/11/26 14:39:06;;;;;;;;;;;;;;;5.79;100.00;101005.84;6336565;22;19933;-88
2022/11/26 14:41:55;;;;;;;;;;;;;;;5.77;100.00;100997.09;6338363;22;19933;-88
2022/11/26 14:44:33;;;;;;;;;;;;;;;6.40;100.00;100995.91;6339591;22;20279;-88
2022/11/26 14:47:06;;;;;;;;;;;;;;;6.86;100.00;100977.13;6340601;22;19917;-88
2022/11/26 14:49:43;;;;;;;;;;;;;;;7.18;100.00;100982.13;6363854;22;19945;-88
2022/11/26 14:52:51;;;;;;;;;;;;;;;7.34;100.00;100969.66;6339520;22;19918;-92
2022/11/26 14:55:30;;;;;;;;;;;;;;;7.55;100.00;100967.69;6218483;23;19912;-89
2022/11/26 14:58:22;;;;;;;;;;;;;;;7.63;100.00;100958.78;6356630;22;19914;-89
2022/11/26 15:04:33;;;;;;;;;;;;;;;7.86;100.00;100959.38;6322862;22;19910;-91
2022/11/26 15:07:21;;;;;;;;;;;;;;;7.96;100.00;100953.06;6339302;22;19911;-89
2022/11/26 15:13:43;;;;;;;;;;;;;;;8.16;100.00;100945.75;6299180;22;19960;-89
2022/11/26 15:16:40;;;;;;;;;;;;;;;;;;;;;
2022/11/26 15:19:31;;;;;;;;;;;;;;;8.31;100.00;100936.75;6339682;22;19994;-88
2022/11/26 15:22:13;;;;;;;;;;;;;;;8.37;100.00;100933.13;6294314;22;19942;-87
2022/11/26 15:28:29;;;;;;;;;;;;;;;8.47;100.00;100948.00;6279752;22;20273;-88
2022/11/26 15:31:07;;;;;;;;;;;;;;;8.50;100.00;100947.94;6183133;23;19983;-88
2022/11/26 15:33:47;;;;;;;;;;;;;;;8.53;100.00;100949.66;6332014;22;19911;-88
2022/11/26 15:39:27;;;;;;;;;;;;;;;8.60;100.00;100955.69;6242946;23;19912;-88
2022/11/26 15:42:25;;;;;;;;;;;;;;;8.65;100.00;100961.81;6246499;22;19911;-94
2022/11/26 15:45:18;;;;;;;;;;;;;;;8.66;100.00;100969.72;6185064;23;19911;-89
2022/11/26 15:47:53;;;;;;;;;;;;;;;8.69;100.00;100963.47;6218153;23;19915;-89
2022/11/26 15:50:45;;;;;;;;;;;;;;;8.69;100.00;100961.69;6309464;22;19989;-87
2022/11/26 15:53:15;;;;;;;;;;;;;;;8.72;100.00;100963.44;6251479;22;19925;-88
2022/11/26 15:55:44;;;;;;;;;;;;;;;8.77;100.00;100964.22;6335708;22;20354;-88
2022/11/26 15:58:17;;;;;;;;;;;;;;;8.78;100.00;100960.69;6338020;22;19914;-89
2022/11/26 16:00:48;;;;;;;;;;;;;;;8.79;100.00;100965.09;6338251;22;19995;-89
2022/11/26 16:03:36;;;;;;;;;;;;;;;9.03;100.00;100965.53;6311409;22;19910;-87
2022/11/26 16:06:05;;;;;;;;;;;;;;;8.97;100.00;100963.91;6336663;22;19915;-90
2022/11/26 16:08:31;;;;;;;;;;;;;;;8.94;100.00;100963.09;6309464;22;19930;-89
2022/11/26 16:10:56;;;;;;;;;;;;;;;8.95;100.00;100960.41;6338921;22;20273;-89
2022/11/26 16:13:41;;;;;;;;;;;;;;;8.95;100.00;100964.81;6340129;22;19956;-94
2022/11/26 16:16:11;;;;;;;;;;;;;;;8.98;100.00;100964.75;6338405;22;19917;-90
2022/11/26 16:18:36;;;;;;;;;;;;;;;8.99;100.00;100967.38;6338692;22;19942;-90
2022/11/26 16:21:26;;;;;;;;;;;;;;;9.02;100.00;100967.31;6338474;22;19921;-89
2022/11/26 16:27:04;;;;;;;;;;;;;;;9.06;100.00;100969.03;6148421;22;20055;-88
2022/11/26 16:29:30;;;;;;;;;;;;;;;9.05;100.00;100969.91;6277900;22;19912;-87
2022/11/26 16:31:55;;;;;;;;;;;;;;;9.04;100.00;100959.38;6279470;22;19912;-85
2022/11/26 16:34:24;;;;;;;;;;;;;;;9.02;100.00;100954.09;6279414;22;20034;-87
2022/11/26 16:37:12;;;;;;;;;;;;;;;9.00;100.00;100960.31;6253129;22;19916;-87
2022/11/26 16:39:43;;;;;;;;;;;;;;;8.94;100.00;100976.31;6219584;22;20007;-90
2022/11/26 16:42:15;;;;;;;;;;;;;;;8.91;100.00;100970.16;6150635;23;19987;-86
2022/11/26 16:44:43;;;;;;;;;;;;;;;8.86;100.00;100966.72;6150681;23;19912;-87
2022/11/26 16:47:14;;;;;;;;;;;;;;;8.83;100.00;100965.91;6151495;23;20236;-85
2022/11/26 16:49:39;;;;;;;;;;;;;;;8.79;100.00;100980.06;6152500;23;20325;-84
2022/11/26 16:52:09;;;;;;;;;;;;;;;8.73;100.00;100981.03;6280721;22;19912;-90
2022/11/26 16:54:36;;;;;;;;;;;;;;;8.66;100.00;100982.03;6149867;23;19917;-88
2022/11/26 16:57:23;;;;;;;;;;;;;;;;;;;;;
2022/11/26 17:00:04;;;;;;;;;;;;;;;8.56;100.00;100977.78;6152084;23;19992;-86
2022/11/26 17:02:34;;;;;;;;;;;;;;;8.54;100.00;100981.31;6280789;22;19913;-86
2022/11/26 17:05:03;;;;;;;;;;;;;;;8.47;100.00;100987.63;6151521;23;20382;-89
2022/11/26 17:07:34;;;;;;;;;;;;;;;8.44;100.00;100985.00;6255932;22;20279;-88
2022/11/26 17:09:59;;;;;;;;;;;;;;;8.44;100.00;100985.00;6271971;22;20235;-88
2022/11/26 17:12:25;;;;;;;;;;;;;;;8.39;100.00;100980.66;6274095;22;19919;-89
2022/11/26 17:18:27;;;;;;;;;;;;;;;8.24;100.00;100973.84;6212443;23;19951;-88
2022/11/26 17:20:56;;;;;;;;;;;;;;;8.14;100.00;100966.03;6188203;23;20038;-90
2022/11/26 17:23:21;;;;;;;;;;;;;;;8.05;100.00;100960.88;6187358;23;19919;-89
2022/11/26 17:25:53;;;;;;;;;;;;;;;7.99;100.00;100955.69;6212417;23;19920;-90
2022/11/26 17:28:22;;;;;;;;;;;;;;;7.93;100.00;100963.69;6189095;23;20283;-88
2022/11/26 17:30:47;;;;;;;;;;;;;;;7.90;100.00;100967.25;6187806;23;20275;-87
2022/11/26 17:33:13;;;;;;;;;;;;;;;7.86;100.00;100967.31;6224573;22;19915;-88
2022/11/26 17:35:38;;;;;;;;;;;;;;;7.81;100.00;100956.81;6252228;22;19912;-87
2022/11/26 17:38:09;;;;;;;;;;;;;;;7.87;100.00;100961.16;6253036;22;19928;-89
2022/11/26 17:40:36;;;;;;;;;;;;;;;7.90;100.00;100961.09;6279686;22;19936;-89
2022/11/26 17:43:01;;;;;;;;;;;;;;;8.05;100.00;100950.31;6254394;22;19919;-86
2022/11/26 17:45:29;;;;;;;;;;;;;;;8.18;100.00;100957.19;6253509;22;19999;-89
2022/11/26 17:47:55;;;;;;;;;;;;;;;8.25;100.00;100965.00;6254473;22;20245;-87
2022/11/26 17:50:25;;;;;;;;;;;;;;;8.32;100.00;100969.31;6254533;22;19966;-87
2022/11/26 17:52:50;;;;;;;;;;;;;;;8.41;100.00;100968.28;6252902;22;19913;-88
2022/11/26 17:55:17;;;;;;;;;;;;;;;8.51;100.00;100981.38;6254160;22;19920;-88
2022/11/26 17:57:42;;;;;;;;;;;;;;;8.70;100.00;100981.09;6280000;22;20233;-89
2022/11/26 18:00:24;;;;;;;;;;;;;;;8.71;100.00;100985.47;6280649;22;19923;-92
2022/11/26 18:02:49;;;;;;;;;;;;;;;8.17;100.00;100987.13;6278202;22;20313;-87
2022/11/26 18:05:14;;;;;;;;;;;;;;;7.98;100.00;100996.19;6150592;23;19917;-89
2022/11/26 18:07:40;;;;;;;;;;;;;;;7.86;100.00;100993.69;6150088;23;20284;-87
2022/11/26 18:10:08;;;;;;;;;;;;;;;7.72;100.00;100994.75;6149937;23;19995;-88
2022/11/26 18:12:34;;;;;;;;;;;;;;;7.68;100.00;100993.03;6151181;23;20000;-88
2022/11/26 18:15:00;;;;;;;;;;;;;;;7.55;100.00;100983.50;6151265;23;20495;-88
2022/11/26 18:17:26;;;;;;;;;;;;;;;7.48;100.00;100985.31;6150641;23;19916;-87
2022/11/26 18:19:51;;;;;;;;;;;;;;;7.38;100.00;100981.91;6150427;23;19955;-87
2022/11/26 18:22:18;;;;;;;;;;;;;;;7.28;100.00;100980.28;6150171;23;19912;-87
2022/11/26 18:24:51;;;;;;;;;;;;;;;7.30;100.00;100980.25;6278226;22;20313;-89
2022/11/26 18:27:17;;;;;;;;;;;;;;;7.24;100.00;100979.44;6254302;22;19920;-89
2022/11/26 18:29:42;;;;;;;;;;;;;;;7.23;100.00;100972.41;6150989;23;19958;-89
2022/11/26 18:32:07;;;;;;;;;;;;;;;7.19;100.00;100968.03;6254225;22;19920;-88
2022/11/26 18:34:35;;;;;;;;;;;;;;;7.06;100.00;100964.66;6279887;22;20225;-86
2022/11/26 18:37:00;;;;;;;;;;;;;;;7.06;100.00;100955.88;6253618;22;19944;-86
2022/11/26 18:39:28;;;;;;;;;;;;;;;7.00;100.00;100955.94;6149741;23;19962;-90
2022/11/26 18:41:53;;;;;;;;;;;;;;;6.98;100.00;100955.97;6253841;22;20003;-88
2022/11/26 18:44:21;;;;;;;;;;;;;;;6.93;100.00;100955.13;6279624;22;19951;-88
2022/11/26 18:46:46;;;;;;;;;;;;;;;6.85;100.00;100954.34;6254003;22;19916;-89
2022/11/26 18:49:12;;;;;;;;;;;;;;;6.85;100.00;100956.97;6253660;22;19958;-89
2022/11/26 18:51:37;;;;;;;;;;;;;;;6.84;100.00;100955.22;6150377;23;19912;-88
2022/11/26 18:54:02;;;;;;;;;;;;;;;6.86;100.00;100956.97;6148800;23;20039;-89
2022/11/26 18:56:30;;;;;;;;;;;;;;;6.75;100.00;100956.19;6253198;22;19912;-88
2022/11/26 18:59:04;;;;;;;;;;;;;;;6.77;100.00;100958.81;6150657;23;19920;-90
2022/11/26 19:01:30;;;;;;;;;;;;;;;6.77;100.00;100954.41;6253712;22;20009;-88
2022/11/26 19:03:56;;;;;;;;;;;;;;;6.73;100.00;100964.09;6280345;22;20214;-87